createdAt,value
2022-12-17T00:02:34.249Z,64.38
2022-12-17T00:05:19.588Z,60.47
2022-12-17T00:08:05.233Z,64.00
2022-12-17T00:10:50.670Z,60.58
2022-12-17T00:13:37.640Z,51.78
2022-12-17T00:16:23.595Z,65.65
2022-12-17T00:19:08.836Z,63.47
2022-12-17T00:21:56.287Z,54.55
2022-12-17T00:24:41.889Z,63.67
2022-12-17T00:27:27.240Z,58.05
2022-12-17T00:30:12.488Z,66.90
2022-12-17T00:32:57.822Z,59.97
2022-12-17T00:35:44.061Z,73.00
2022-12-17T00:38:34.122Z,63.25
2022-12-17T00:41:19.318Z,59.03
2022-12-17T00:44:04.746Z,52.88
2022-12-17T00:46:50.086Z,54.22
2022-12-17T00:49:38.177Z,61.08
2022-12-17T00:52:23.494Z,59.92
2022-12-17T00:55:08.548Z,56.13
2022-12-17T01:00:52.576Z,58.65
2022-12-17T01:03:41.709Z,65.93
2022-12-17T01:06:27.194Z,59.10
2022-12-17T01:09:13.778Z,62.78
2022-12-17T01:11:59.199Z,55.90
2022-12-17T01:14:45.053Z,61.45
2022-12-17T01:17:30.478Z,56.33
2022-12-17T01:20:15.653Z,57.80
2022-12-17T01:23:00.945Z,59.17
2022-12-17T01:25:46.225Z,59.38
2022-12-17T01:28:31.418Z,57.30
2022-12-17T01:31:16.846Z,56.67
2022-12-17T01:34:02.318Z,61.92
2022-12-17T01:36:47.589Z,56.92
2022-12-17T01:39:33.185Z,58.90
2022-12-17T01:42:18.553Z,59.28
2022-12-17T01:45:06.878Z,69.32
2022-12-17T01:47:52.379Z,62.58
2022-12-17T01:50:38.615Z,63.08
2022-12-17T01:53:24.919Z,63.25
2022-12-17T01:56:10.712Z,65.55
2022-12-17T01:58:56.710Z,61.78
2022-12-17T02:01:42.317Z,65.75
2022-12-17T02:04:27.682Z,60.85
2022-12-17T02:07:33.317Z,63.67
2022-12-17T02:10:41.291Z,62.10
2022-12-17T02:13:30.971Z,62.25
2022-12-17T02:16:27.687Z,57.47
2022-12-17T02:19:16.639Z,60.47
2022-12-17T02:22:03.525Z,60.22
2022-12-17T02:25:02.616Z,63.08
2022-12-17T02:27:49.188Z,62.78
2022-12-17T02:30:35.280Z,59.13
2022-12-17T02:33:21.030Z,56.10
2022-12-17T02:36:10.818Z,54.88
2022-12-17T02:38:56.666Z,58.25
2022-12-17T02:42:07.309Z,54.75
2022-12-17T02:44:54.312Z,61.78
2022-12-17T02:47:40.615Z,61.67
2022-12-17T02:50:26.523Z,45.00
2022-12-17T02:53:12.245Z,51.55
2022-12-17T02:55:57.427Z,53.88
2022-12-17T02:58:44.502Z,52.65
2022-12-17T03:01:31.693Z,41.15
2022-12-17T03:04:17.402Z,43.13
2022-12-17T03:07:04.326Z,40.83
2022-12-17T03:09:49.691Z,46.22
2022-12-17T03:12:35.231Z,35.03
2022-12-17T03:15:20.649Z,33.95
2022-12-17T03:18:05.900Z,34.35
2022-12-17T03:20:51.163Z,48.22
2022-12-17T03:23:36.481Z,37.08
2022-12-17T03:26:22.541Z,37.70
2022-12-17T03:29:07.964Z,36.05
2022-12-17T03:31:53.230Z,43.33
2022-12-17T03:34:38.478Z,41.28
2022-12-17T03:37:24.187Z,44.13
2022-12-17T03:40:09.511Z,26.85
2022-12-17T03:42:54.789Z,29.85
2022-12-17T03:45:39.963Z,35.92
2022-12-17T03:48:26.692Z,38.72
2022-12-17T03:51:12.740Z,50.55
2022-12-17T03:53:58.165Z,51.13
2022-12-17T03:56:43.678Z,46.03
2022-12-17T03:59:29.022Z,46.15
2022-12-17T04:02:14.764Z,47.28
2022-12-17T04:05:00.143Z,36.47
2022-12-17T04:07:45.387Z,47.05
2022-12-17T04:10:30.704Z,44.90
2022-12-17T04:13:15.972Z,28.98
2022-12-17T04:16:01.440Z,38.42
2022-12-17T04:18:46.915Z,44.95
2022-12-17T04:21:32.180Z,43.38
2022-12-17T04:24:17.599Z,38.60
2022-12-17T04:27:02.882Z,39.08
2022-12-17T04:29:48.260Z,36.67
2022-12-17T04:32:35.368Z,46.35
2022-12-17T04:35:20.949Z,27.00
2022-12-17T04:38:07.727Z,32.42
2022-12-17T04:40:52.964Z,28.83
2022-12-17T04:43:38.709Z,21.10
2022-12-17T04:46:24.268Z,26.23
2022-12-17T04:49:09.731Z,73.10
2022-12-17T04:51:55.076Z,44.63
2022-12-17T04:54:40.372Z,42.30
2022-12-17T04:57:25.814Z,63.22
2022-12-17T05:00:11.046Z,41.38
2022-12-17T05:02:56.653Z,42.10
2022-12-17T05:05:42.028Z,41.55
2022-12-17T05:08:27.261Z,41.67
2022-12-17T05:11:12.430Z,44.17
2022-12-17T05:13:57.675Z,40.67
2022-12-17T05:16:42.988Z,38.45
2022-12-17T05:19:28.288Z,33.80
2022-12-17T05:22:13.542Z,30.67
2022-12-17T05:24:58.958Z,35.20
2022-12-17T05:27:44.526Z,39.70
2022-12-17T05:30:30.645Z,28.65
2022-12-17T05:33:22.671Z,31.00
2022-12-17T05:36:08.150Z,28.30
2022-12-17T05:38:53.694Z,27.05
2022-12-17T05:41:38.967Z,25.80
2022-12-17T05:44:24.458Z,26.50
2022-12-17T05:47:10.018Z,27.02
2022-12-17T05:49:56.559Z,30.48
2022-12-17T05:52:42.650Z,30.33
2022-12-17T05:55:28.126Z,34.38
2022-12-17T05:58:21.038Z,34.60
2022-12-17T06:01:06.263Z,37.88
2022-12-17T06:03:51.718Z,36.03
2022-12-17T06:06:50.940Z,36.28
2022-12-17T06:09:36.920Z,35.28
2022-12-17T06:12:22.274Z,36.83
2022-12-17T06:15:07.528Z,36.67
2022-12-17T06:17:52.990Z,36.45
2022-12-17T06:20:38.087Z,34.80
2022-12-17T06:23:24.900Z,36.90
2022-12-17T06:26:16.442Z,33.55
2022-12-17T06:29:02.759Z,30.88
2022-12-17T06:31:48.168Z,29.88
2022-12-17T06:34:33.889Z,36.88
2022-12-17T06:37:19.246Z,36.97
2022-12-17T06:40:04.461Z,35.15
2022-12-17T06:42:49.912Z,33.95
2022-12-17T06:45:35.345Z,33.83
2022-12-17T06:48:21.265Z,38.35
2022-12-17T06:51:06.704Z,32.50
2022-12-17T06:53:52.106Z,31.27
2022-12-17T06:56:37.269Z,33.15
2022-12-17T06:59:22.653Z,34.50
2022-12-17T07:02:08.155Z,26.60
2022-12-17T07:04:53.461Z,30.45
2022-12-17T07:07:38.893Z,21.40
2022-12-17T07:10:24.242Z,27.98
2022-12-17T07:13:09.487Z,30.63
2022-12-17T07:15:54.783Z,26.05
2022-12-17T07:18:40.107Z,22.45
2022-12-17T07:21:25.399Z,27.77
2022-12-17T07:24:10.829Z,23.30
2022-12-17T07:26:56.244Z,28.40
2022-12-17T07:29:41.592Z,19.15
2022-12-17T07:32:26.996Z,22.15
2022-12-17T07:35:12.320Z,23.00
2022-12-17T07:37:57.556Z,24.52
2022-12-17T07:40:42.954Z,21.67
2022-12-17T07:43:28.790Z,19.38
2022-12-17T07:46:14.122Z,21.42
2022-12-17T07:48:59.451Z,25.27
2022-12-17T07:51:44.892Z,18.10
2022-12-17T07:54:30.348Z,12.70
2022-12-17T07:57:15.597Z,13.63
2022-12-17T08:00:01.127Z,20.48
2022-12-17T08:02:46.576Z,21.17
2022-12-17T08:05:31.888Z,18.08
2022-12-17T08:08:17.270Z,15.68
2022-12-17T08:11:07.035Z,16.63
2022-12-17T08:13:52.447Z,20.63
2022-12-17T08:16:37.841Z,18.60
2022-12-17T08:19:23.213Z,16.35
2022-12-17T08:22:08.476Z,17.65
2022-12-17T08:24:53.867Z,16.52
2022-12-17T08:27:39.314Z,22.83
2022-12-17T08:30:30.443Z,19.15
2022-12-17T08:33:24.934Z,30.50
2022-12-17T08:36:11.507Z,35.72
2022-12-17T08:38:57.011Z,24.02
2022-12-17T08:41:42.441Z,27.88
2022-12-17T08:44:27.851Z,18.50
2022-12-17T08:47:33.076Z,27.05
2022-12-17T08:50:18.232Z,16.27
2022-12-17T08:53:03.475Z,17.73
2022-12-17T08:55:49.113Z,22.67
2022-12-17T08:58:34.585Z,24.30
2022-12-17T09:01:20.108Z,18.98
2022-12-17T09:04:06.068Z,25.50
2022-12-17T09:06:51.619Z,73.65
2022-12-17T09:09:37.030Z,32.10
2022-12-17T09:12:22.489Z,22.98
2022-12-17T09:15:07.972Z,24.73
2022-12-17T09:18:07.182Z,34.55
2022-12-17T09:20:57.160Z,33.65
2022-12-17T09:23:42.541Z,26.73
2022-12-17T09:26:27.936Z,22.25
2022-12-17T09:29:13.530Z,23.52
2022-12-17T09:31:59.130Z,17.92
2022-12-17T09:34:44.796Z,21.15
2022-12-17T09:37:30.294Z,19.02
2022-12-17T09:40:15.776Z,18.35
2022-12-17T09:43:04.321Z,21.77
2022-12-17T09:46:22.326Z,27.52
2022-12-17T09:49:15.116Z,27.52
2022-12-17T09:52:00.483Z,23.17
2022-12-17T09:55:01.367Z,30.45
2022-12-17T09:57:49.274Z,24.65
2022-12-17T10:00:37.887Z,27.90
2022-12-17T10:03:29.050Z,20.10
2022-12-17T10:06:22.216Z,20.38
2022-12-17T10:09:11.598Z,26.25
2022-12-17T10:12:00.885Z,33.50
2022-12-17T10:14:46.222Z,34.55
2022-12-17T10:17:36.124Z,30.40
2022-12-17T10:20:22.134Z,28.08
2022-12-17T10:23:22.028Z,25.50
2022-12-17T10:26:11.684Z,25.40
2022-12-17T10:28:57.082Z,27.73
2022-12-17T10:31:44.776Z,45.72
2022-12-17T10:34:39.861Z,26.95
2022-12-17T10:37:25.285Z,104.85
2022-12-17T10:40:17.762Z,103.70
2022-12-17T10:43:03.411Z,30.00
2022-12-17T10:45:50.460Z,30.02
2022-12-17T10:48:39.919Z,46.35
2022-12-17T10:51:34.423Z,27.55
2022-12-17T10:54:23.517Z,24.98
2022-12-17T10:57:11.548Z,22.27
2022-12-17T10:59:57.809Z,28.75
2022-12-17T11:02:48.548Z,27.33
2022-12-17T11:05:37.543Z,29.08
2022-12-17T11:08:23.277Z,26.23
2022-12-17T11:11:08.754Z,19.88
2022-12-17T11:13:58.758Z,24.52
2022-12-17T11:17:02.964Z,22.67
2022-12-17T11:20:09.614Z,36.55
2022-12-17T11:23:08.999Z,18.83
2022-12-17T11:26:07.123Z,26.95
2022-12-17T11:28:53.456Z,34.38
2022-12-17T11:32:04.546Z,31.30
2022-12-17T11:35:05.837Z,20.58
2022-12-17T11:38:11.498Z,33.80
2022-12-17T11:41:06.534Z,40.80
2022-12-17T11:44:10.859Z,85.80
2022-12-17T11:46:56.116Z,31.38
2022-12-17T11:49:41.405Z,30.92
2022-12-17T11:52:26.537Z,76.05
2022-12-17T11:55:31.825Z,32.72
2022-12-17T11:58:20.543Z,18.17
2022-12-17T12:01:12.030Z,27.48
2022-12-17T12:04:16.012Z,27.60
2022-12-17T12:07:01.155Z,42.65
2022-12-17T12:09:49.561Z,20.70
2022-12-17T12:12:37.991Z,38.03
2022-12-17T12:15:32.629Z,32.67
2022-12-17T12:18:23.929Z,31.75
2022-12-17T12:21:28.098Z,33.95
2022-12-17T12:24:16.413Z,30.33
2022-12-17T12:27:14.935Z,77.72
2022-12-17T12:30:02.352Z,27.98
2022-12-17T12:32:53.860Z,56.45
2022-12-17T12:35:41.511Z,34.97
2022-12-17T12:38:32.359Z,39.15
2022-12-17T12:41:21.076Z,32.47
2022-12-17T12:44:11.307Z,30.38
2022-12-17T12:47:04.646Z,46.67
2022-12-17T12:49:49.983Z,37.85
2022-12-17T12:52:42.938Z,32.00
2022-12-17T12:55:28.421Z,32.05
2022-12-17T12:58:13.623Z,32.47
2022-12-17T13:01:10.111Z,28.70
2022-12-17T13:03:58.728Z,25.02
2022-12-17T13:06:42.667Z,30.10
2022-12-17T13:09:15.463Z,16.80
2022-12-17T13:11:43.000Z,16.70
2022-12-17T13:14:32.923Z,13.40
2022-12-17T13:16:59.404Z,14.55
2022-12-17T13:19:34.659Z,12.27
2022-12-17T13:22:21.922Z,15.93
2022-12-17T13:24:51.947Z,12.52
2022-12-17T13:27:33.809Z,18.25
2022-12-17T13:30:18.728Z,21.20
2022-12-17T13:32:48.586Z,15.60
2022-12-17T13:35:21.236Z,21.80
2022-12-17T13:37:47.825Z,19.75
2022-12-17T13:40:33.270Z,21.88
2022-12-17T13:43:00.094Z,25.88
2022-12-17T13:45:27.238Z,17.33
2022-12-17T13:47:54.999Z,18.48
2022-12-17T13:50:38.368Z,19.90
2022-12-17T13:53:12.914Z,15.80
2022-12-17T13:55:40.217Z,18.38
2022-12-17T13:58:20.203Z,16.17
2022-12-17T14:00:46.763Z,24.88
2022-12-17T14:03:13.388Z,10.65
2022-12-17T14:05:43.139Z,16.02
2022-12-17T14:08:13.784Z,23.00
2022-12-17T14:10:52.302Z,20.90
2022-12-17T14:13:19.000Z,21.20
2022-12-17T14:15:48.210Z,21.38
2022-12-17T14:18:15.985Z,21.80
2022-12-17T14:20:42.660Z,22.33
2022-12-17T14:23:20.527Z,17.35
2022-12-17T14:25:49.020Z,24.17
2022-12-17T14:28:23.420Z,20.35
2022-12-17T14:31:25.014Z,15.02
2022-12-17T14:33:37.735Z,20.33
2022-12-17T14:36:09.043Z,18.95
2022-12-17T14:38:38.690Z,19.75
2022-12-17T14:41:29.771Z,15.80
2022-12-17T14:43:57.377Z,18.40
2022-12-17T14:46:24.160Z,14.95
2022-12-17T14:49:04.340Z,18.73
2022-12-17T14:51:30.882Z,18.90
2022-12-17T14:54:21.954Z,19.90
2022-12-17T14:56:49.313Z,24.13
2022-12-17T14:59:33.372Z,23.02
2022-12-17T15:02:01.799Z,23.20
2022-12-17T15:04:29.407Z,16.70
2022-12-17T15:06:56.142Z,18.88
2022-12-17T15:09:22.784Z,20.42
2022-12-17T15:11:49.430Z,21.17
2022-12-17T15:14:16.113Z,20.27
2022-12-17T15:16:42.805Z,18.52
2022-12-17T15:19:09.514Z,16.48
2022-12-17T15:21:36.227Z,14.43
2022-12-17T15:24:02.885Z,14.75
2022-12-17T15:26:29.515Z,16.73
2022-12-17T15:28:56.141Z,14.85
2022-12-17T15:31:26.173Z,13.18
2022-12-17T15:33:55.150Z,15.82
2022-12-17T15:36:21.723Z,15.60
2022-12-17T15:38:48.380Z,20.42
2022-12-17T15:41:33.764Z,15.77
2022-12-17T15:44:00.460Z,15.02
2022-12-17T15:46:27.318Z,15.02
2022-12-17T15:48:54.579Z,13.40
2022-12-17T15:51:21.345Z,17.23
2022-12-17T15:53:48.444Z,20.85
2022-12-17T15:56:19.390Z,17.65
2022-12-17T15:58:46.019Z,21.92
2022-12-17T16:01:12.847Z,22.08
2022-12-17T16:03:39.839Z,23.95
2022-12-17T16:06:06.646Z,20.23
2022-12-17T16:08:33.290Z,26.35
2022-12-17T16:10:59.980Z,25.83
2022-12-17T16:13:26.597Z,23.13
2022-12-17T16:16:02.132Z,20.80
2022-12-17T16:18:30.537Z,23.95
2022-12-17T16:21:04.500Z,25.77
2022-12-17T16:23:31.602Z,24.52
2022-12-17T16:25:59.083Z,27.60
2022-12-17T16:28:26.432Z,24.70
2022-12-17T16:31:06.839Z,26.33
2022-12-17T16:33:35.882Z,24.80
2022-12-17T16:36:03.523Z,21.20
2022-12-17T16:38:30.287Z,26.45
2022-12-17T16:41:00.737Z,28.58
2022-12-17T16:43:28.165Z,25.75
2022-12-17T16:45:54.825Z,24.80
2022-12-17T16:48:21.942Z,24.48
2022-12-17T16:50:49.364Z,19.48
2022-12-17T16:53:16.054Z,26.08
2022-12-17T16:55:43.510Z,22.02
2022-12-17T16:58:10.315Z,26.52
2022-12-17T17:00:37.082Z,28.80
2022-12-17T17:03:04.749Z,27.45
2022-12-17T17:05:32.663Z,29.92
2022-12-17T17:07:59.556Z,29.42
2022-12-17T17:10:26.122Z,31.77
2022-12-17T17:12:53.205Z,30.42
2022-12-17T17:15:20.240Z,28.70
2022-12-17T17:17:54.292Z,28.48
2022-12-17T17:20:22.832Z,29.92
2022-12-17T17:22:49.589Z,22.25
2022-12-17T17:25:16.261Z,28.67
2022-12-17T17:27:43.668Z,27.23
2022-12-17T17:30:10.830Z,24.33
2022-12-17T17:32:37.520Z,20.85
2022-12-17T17:35:04.531Z,24.50
2022-12-17T17:37:31.094Z,22.25
2022-12-17T17:39:57.662Z,25.98
2022-12-17T17:42:24.413Z,21.75
2022-12-17T17:44:51.413Z,24.00
2022-12-17T17:47:18.069Z,26.02
2022-12-17T17:49:44.746Z,24.98
2022-12-17T17:52:12.068Z,25.15
2022-12-17T17:54:39.649Z,27.30
2022-12-17T17:57:06.433Z,22.42
2022-12-17T17:59:34.281Z,25.92
2022-12-17T18:02:02.043Z,26.02
2022-12-17T18:04:28.845Z,28.48
2022-12-17T18:07:24.297Z,27.63
2022-12-17T18:09:42.294Z,25.13
2022-12-17T18:12:27.812Z,24.20
2022-12-17T18:17:41.293Z,25.42
2022-12-17T18:20:09.586Z,24.13
2022-12-17T18:22:36.670Z,25.92
2022-12-17T18:25:03.689Z,24.92
2022-12-17T18:27:30.254Z,26.63
2022-12-17T18:29:56.943Z,23.85
2022-12-17T18:32:23.705Z,26.40
2022-12-17T18:34:50.301Z,26.15
2022-12-17T18:37:16.955Z,27.50
2022-12-17T18:39:43.620Z,28.38
2022-12-17T18:42:29.180Z,28.15
2022-12-17T18:44:55.853Z,27.35
2022-12-17T18:47:22.564Z,27.17
2022-12-17T18:49:49.520Z,24.60
2022-12-17T18:52:17.280Z,31.35
2022-12-17T18:54:44.973Z,29.08
2022-12-17T18:57:12.185Z,29.77
2022-12-17T18:59:40.908Z,29.75
2022-12-17T19:02:14.977Z,25.90
2022-12-17T19:04:42.188Z,19.73
2022-12-17T19:07:09.062Z,20.65
2022-12-17T19:09:36.301Z,22.85
2022-12-17T19:12:04.247Z,24.65
2022-12-17T19:14:30.993Z,17.10
2022-12-17T19:16:58.208Z,16.98
2022-12-17T19:19:25.385Z,19.73
2022-12-17T19:21:54.797Z,20.00
2022-12-17T19:24:22.348Z,14.75
2022-12-17T19:26:49.665Z,23.80
2022-12-17T19:29:17.386Z,21.67
2022-12-17T19:31:44.412Z,23.88
2022-12-17T19:34:12.727Z,22.95
2022-12-17T19:36:40.002Z,24.27
2022-12-17T19:39:07.546Z,8.57
2022-12-17T19:41:34.663Z,9.35
2022-12-17T19:44:02.848Z,9.65
2022-12-17T19:46:33.403Z,12.13
2022-12-17T19:49:01.304Z,11.27
2022-12-17T19:51:29.314Z,18.40
2022-12-17T19:53:55.970Z,25.17
2022-12-17T19:56:23.877Z,24.75
2022-12-17T19:58:52.641Z,21.25
2022-12-17T20:01:21.071Z,22.90
2022-12-17T20:03:48.136Z,25.20
2022-12-17T20:06:15.789Z,26.45
2022-12-17T20:08:42.689Z,27.02
2022-12-17T20:11:29.291Z,26.38
2022-12-17T20:13:57.335Z,25.38
2022-12-17T20:16:24.251Z,25.45
2022-12-17T20:18:51.048Z,24.98
2022-12-17T20:21:18.228Z,29.73
2022-12-17T20:23:48.455Z,25.25
2022-12-17T20:26:15.628Z,26.95
2022-12-17T20:28:42.587Z,22.23
2022-12-17T20:31:09.828Z,18.33
2022-12-17T20:33:36.979Z,16.83
2022-12-17T20:36:05.335Z,22.67
2022-12-17T20:38:32.754Z,14.63
2022-12-17T20:40:59.754Z,16.67
2022-12-17T20:43:27.258Z,20.65
2022-12-17T20:45:57.565Z,12.50
2022-12-17T20:48:24.665Z,15.68
2022-12-17T20:50:51.301Z,21.80
2022-12-17T20:53:18.339Z,12.73
2022-12-17T20:55:45.205Z,15.75
2022-12-17T20:58:13.663Z,18.92
2022-12-17T21:00:40.544Z,10.98
2022-12-17T21:03:07.573Z,13.48
2022-12-17T21:05:35.433Z,9.20
2022-12-17T21:08:02.390Z,6.72
2022-12-17T21:10:29.129Z,7.72
2022-12-17T21:13:14.601Z,6.50
2022-12-17T21:15:47.905Z,9.77
2022-12-17T21:18:15.881Z,12.80
2022-12-17T21:20:42.691Z,15.90
2022-12-17T21:23:09.965Z,20.90
2022-12-17T21:25:38.827Z,22.42
2022-12-17T21:28:05.435Z,18.48
2022-12-17T21:30:35.252Z,18.40
2022-12-17T21:33:01.885Z,17.55
2022-12-17T21:35:28.696Z,23.10
2022-12-17T21:37:55.755Z,21.25
2022-12-17T21:40:22.707Z,19.55
2022-12-17T21:43:02.485Z,18.48
2022-12-17T21:45:39.548Z,15.38
2022-12-17T21:48:11.299Z,21.65
2022-12-17T21:50:42.534Z,21.98
2022-12-17T21:53:10.831Z,19.27
2022-12-17T21:55:37.783Z,19.48
2022-12-17T21:58:04.865Z,17.15
2022-12-17T22:00:31.880Z,21.42
2022-12-17T22:02:58.568Z,20.23
2022-12-17T22:05:25.350Z,21.80
2022-12-17T22:07:52.318Z,15.23
2022-12-17T22:10:41.892Z,19.08
2022-12-17T22:13:25.144Z,14.32
2022-12-17T22:15:55.168Z,16.67
2022-12-17T22:18:22.119Z,16.33
2022-12-17T22:21:01.457Z,15.10
2022-12-17T22:23:28.165Z,16.50
2022-12-17T22:25:55.231Z,17.33
2022-12-17T22:28:21.919Z,16.02
2022-12-17T22:31:09.397Z,17.60
2022-12-17T22:34:00.914Z,20.13
2022-12-17T22:38:41.689Z,19.42
2022-12-17T22:41:48.319Z,18.52
2022-12-17T22:44:38.737Z,19.50
2022-12-17T22:45:09.786Z,22.10
2022-12-17T22:47:38.085Z,20.77
2022-12-17T22:50:04.979Z,22.00
2022-12-17T22:52:32.328Z,18.88
2022-12-17T22:54:59.134Z,22.08
2022-12-17T22:57:37.571Z,20.95
2022-12-17T23:00:28.658Z,21.02
2022-12-17T23:02:55.470Z,21.27
2022-12-17T23:05:22.821Z,22.65
2022-12-17T23:07:49.884Z,21.42
2022-12-17T23:10:16.761Z,21.42
2022-12-17T23:12:52.785Z,19.45
2022-12-17T23:15:30.121Z,20.10
2022-12-17T23:17:58.246Z,19.77
2022-12-17T23:20:25.797Z,19.73
2022-12-17T23:22:52.550Z,19.65
2022-12-17T23:25:20.999Z,17.27
2022-12-17T23:27:48.323Z,20.27
2022-12-17T23:30:16.474Z,15.80
2022-12-17T23:32:44.290Z,15.95
2022-12-17T23:35:11.883Z,21.02
2022-12-17T23:37:40.464Z,17.38
2022-12-17T23:40:08.513Z,11.63
2022-12-17T23:42:35.068Z,18.55
2022-12-17T23:45:01.663Z,21.60
2022-12-17T23:47:28.864Z,18.30
2022-12-17T23:49:55.472Z,21.25
2022-12-17T23:52:23.926Z,20.80
2022-12-17T23:54:50.587Z,19.75
2022-12-17T23:57:17.089Z,20.67
2022-12-17T23:59:43.612Z,18.77
